createdAt,value
2019-04-20T00:01:32.017Z,66.3
2019-04-20T00:03:34.675Z,73.2
2019-04-20T00:05:27.511Z,68.2
2019-04-20T00:07:30.995Z,72.3
2019-04-20T00:09:31.308Z,76.1
2019-04-20T00:11:36.416Z,70.9
2019-04-20T00:13:38.392Z,56.4
2019-04-20T00:15:26.034Z,79.1
2019-04-20T00:17:26.422Z,66.6
2019-04-20T00:19:32.249Z,86.3
2019-04-20T00:21:24.812Z,75.2
2019-04-20T00:23:30.662Z,82.2
2019-04-20T00:25:38.645Z,72.6
2019-04-20T00:27:43.306Z,73.5
2019-04-20T00:29:39.380Z,84.8
2019-04-20T00:31:40.299Z,73
2019-04-20T00:33:41.020Z,78.8
2019-04-20T00:35:23.101Z,77.5
2019-04-20T00:37:23.377Z,76.8
2019-04-20T00:39:23.675Z,89.9
2019-04-20T00:41:23.070Z,77
2019-04-20T00:43:30.133Z,77.6
2019-04-20T00:45:27.400Z,83.9
2019-04-20T00:47:34.618Z,73.6
2019-04-20T00:49:34.873Z,82.6
2019-04-20T00:51:34.856Z,81.7
2019-04-20T00:53:30.422Z,69.8
2019-04-20T00:57:34.150Z,87
2019-04-20T00:59:31.751Z,86.2
2019-04-20T01:01:46.205Z,74.4
2019-04-20T01:03:33.830Z,89.3
2019-04-20T01:05:38.639Z,91.9
2019-04-20T01:07:30.800Z,92.2
2019-04-20T01:09:18.587Z,108.6
2019-04-20T01:11:27.046Z,117.8
2019-04-20T01:13:22.866Z,117.7
2019-04-20T01:15:30.160Z,116.6
2019-04-20T01:17:17.441Z,113.7
2019-04-20T01:19:19.231Z,128.9
2019-04-20T01:21:21.585Z,90.6
2019-04-20T01:23:20.715Z,106
2019-04-20T01:25:24.806Z,115.5
2019-04-20T01:27:29.562Z,119.4
2019-04-20T01:29:26.359Z,104
2019-04-20T01:33:30.418Z,107.5
2019-04-20T01:35:32.014Z,104.3
2019-04-20T01:37:30.293Z,97.1
2019-04-20T01:39:25.393Z,99.2
2019-04-20T01:41:14.241Z,96.3
2019-04-20T01:43:14.278Z,73.9
2019-04-20T01:45:21.654Z,87.7
2019-04-20T01:47:14.952Z,83.1
2019-04-20T01:49:18.222Z,93.4
2019-04-20T01:51:19.694Z,90.9
2019-04-20T01:53:23.718Z,78.8
2019-04-20T01:55:33.687Z,73.7
2019-04-20T01:57:19.970Z,89.8
2019-04-20T01:59:26.661Z,83.6
2019-04-20T02:01:19.217Z,89.9
2019-04-20T02:03:12.996Z,79.4
2019-04-20T02:05:19.269Z,79.9
2019-04-20T02:07:12.027Z,75
2019-04-20T02:09:17.272Z,70
2019-04-20T02:11:18.660Z,63.7
2019-04-20T02:13:11.209Z,86.7
2019-04-20T02:17:22.710Z,88.1
2019-04-20T02:19:26.616Z,80.4
2019-04-20T02:21:25.928Z,79.1
2019-04-20T02:23:23.756Z,87
2019-04-20T02:25:10.389Z,71
2019-04-20T02:27:08.286Z,69.4
2019-04-20T02:29:32.643Z,80.5
2019-04-20T02:32:01.480Z,79.5
2019-04-20T02:33:42.454Z,91.2
2019-04-20T02:35:46.230Z,78.5
2019-04-20T02:37:51.353Z,76.2
2019-04-20T02:39:51.336Z,80.4
2019-04-20T02:43:48.385Z,78.8
2019-04-20T02:45:40.369Z,59.2
2019-04-20T02:47:54.869Z,77.8
2019-04-20T02:51:43.254Z,73
2019-04-20T02:53:41.570Z,64.3
2019-04-20T02:55:40.182Z,71.4
2019-04-20T02:57:43.728Z,67.3
2019-04-20T03:01:36.484Z,62.8
2019-04-20T03:03:17.254Z,62.7
2019-04-20T03:05:16.435Z,76.1
2019-04-20T03:07:15.615Z,64.1
2019-04-20T03:09:29.687Z,63
2019-04-20T03:11:37.487Z,70.6
2019-04-20T03:13:25.335Z,54.9
2019-04-20T03:15:31.396Z,65.1
2019-04-20T03:17:30.039Z,67.9
2019-04-20T03:19:17.094Z,71.2
2019-04-20T03:21:30.125Z,65.4
2019-04-20T03:25:22.614Z,54.2
2019-04-20T03:27:20.919Z,66
2019-04-20T03:29:12.827Z,53.7
2019-04-20T03:33:31.032Z,54.7
2019-04-20T03:35:28.686Z,56.1
2019-04-20T03:37:26.684Z,50.2
2019-04-20T03:39:19.071Z,51.3
2019-04-20T03:41:09.582Z,49.4
2019-04-20T03:42:59.122Z,66.4
2019-04-20T03:45:05.322Z,55
2019-04-20T03:47:02.807Z,61.4
2019-04-20T03:49:14.612Z,65.9
2019-04-20T03:51:26.559Z,50.2
2019-04-20T03:53:20.961Z,49.8
2019-04-20T03:55:16.113Z,55.2
2019-04-20T03:57:23.105Z,48.7
2019-04-20T04:01:22.718Z,54.6
2019-04-20T04:03:26.961Z,48
2019-04-20T04:05:13.518Z,43.9
2019-04-20T04:06:59.552Z,39.4
2019-04-20T04:09:07.360Z,42.9
2019-04-20T04:11:18.892Z,57.6
2019-04-20T04:13:09.564Z,50.6
2019-04-20T04:14:55.684Z,47.2
2019-04-20T04:16:57.917Z,50.6
2019-04-20T04:19:07.542Z,41.3
2019-04-20T04:21:01.099Z,41.2
2019-04-20T04:23:10.281Z,48.8
2019-04-20T04:25:10.182Z,32.9
2019-04-20T04:27:05.709Z,39.3
2019-04-20T04:29:19.176Z,39
2019-04-20T04:31:12.029Z,36.3
2019-04-20T04:33:44.550Z,41.6
2019-04-20T04:35:05.526Z,43.3
2019-04-20T04:37:10.658Z,25.7
2019-04-20T04:39:17.778Z,21.6
2019-04-20T04:41:20.202Z,20.1
2019-04-20T04:43:10.174Z,22.8
2019-04-20T04:44:59.697Z,29
2019-04-20T04:46:57.606Z,23.3
2019-04-20T04:48:53.304Z,20.1
2019-04-20T04:50:57.397Z,27.9
2019-04-20T04:53:01.001Z,30.9
2019-04-20T04:54:57.480Z,26.4
2019-04-20T04:56:50.420Z,26.1
2019-04-20T04:58:50.062Z,29
2019-04-20T05:00:51.424Z,21.8
2019-04-20T05:02:53.843Z,30.1
2019-04-20T05:05:10.381Z,26.5
2019-04-20T05:07:05.034Z,26
2019-04-20T05:08:54.993Z,26.2
2019-04-20T05:10:49.895Z,31.5
2019-04-20T05:12:50.172Z,26.8
2019-04-20T05:15:02.283Z,25.2
2019-04-20T05:17:01.769Z,28.8
2019-04-20T05:21:13.009Z,30.4
2019-04-20T05:23:06.078Z,28.9
2019-04-20T05:25:05.738Z,27.5
2019-04-20T05:27:09.233Z,33.3
2019-04-20T05:28:55.633Z,29.3
2019-04-20T05:30:53.794Z,26.1
2019-04-20T05:37:17.577Z,28.2
2019-04-20T05:39:19.185Z,31.5
2019-04-20T05:41:04.211Z,29.7
2019-04-20T05:43:07.858Z,27.8
2019-04-20T05:45:01.853Z,26.5
2019-04-20T05:47:06.964Z,28.9
2019-04-20T05:49:13.414Z,29.4
2019-04-20T05:53:09.448Z,31.7
2019-04-20T05:57:07.847Z,33.5
2019-04-20T05:59:09.767Z,30.8
2019-04-20T06:01:10.863Z,31.5
2019-04-20T06:03:04.119Z,30.3
2019-04-20T06:05:11.336Z,32.3
2019-04-20T06:07:11.262Z,28.9
2019-04-20T06:09:12.258Z,31.2
2019-04-20T06:11:02.366Z,28.7
2019-04-20T06:13:00.248Z,27.8
2019-04-20T06:15:00.381Z,29.5
2019-04-20T06:17:04.763Z,37.5
2019-04-20T06:19:18.159Z,31.3
2019-04-20T06:21:16.136Z,29.5
2019-04-20T06:23:15.898Z,34.9
2019-04-20T06:25:19.648Z,32.8
2019-04-20T06:27:03.448Z,29.5
2019-04-20T06:28:57.176Z,32.5
2019-04-20T06:30:56.900Z,26.3
2019-04-20T06:37:02.926Z,27.2
2019-04-20T06:39:14.141Z,32.3
2019-04-20T06:41:17.357Z,29.1
2019-04-20T06:43:09.053Z,30.6
2019-04-20T06:45:05.714Z,35.4
2019-04-20T06:50:57.209Z,36.8
2019-04-20T06:53:07.687Z,33.6
2019-04-20T06:54:57.734Z,35.2
2019-04-20T06:57:02.862Z,30.7
2019-04-20T06:59:06.930Z,29.1
2019-04-20T07:01:03.787Z,32.4
2019-04-20T07:03:01.817Z,34.1
2019-04-20T07:04:59.732Z,32.5
2019-04-20T07:07:05.355Z,35.3
2019-04-20T07:09:06.600Z,30.8
2019-04-20T07:11:04.348Z,32.4
2019-04-20T07:12:58.027Z,30.8
2019-04-20T07:14:50.985Z,32.8
2019-04-20T07:17:00.886Z,33.5
2019-04-20T07:19:01.106Z,39.9
2019-04-20T07:21:04.251Z,33.5
2019-04-20T07:23:11.959Z,32.9
2019-04-20T07:25:13.982Z,30.3
2019-04-20T07:27:00.752Z,26.5
2019-04-20T07:28:58.852Z,23.2
2019-04-20T07:32:58.302Z,30.4
2019-04-20T07:35:03.345Z,28.1
2019-04-20T07:37:09.901Z,26.8
2019-04-20T07:39:00.697Z,30.5
2019-04-20T07:41:00.011Z,30.6
2019-04-20T07:43:07.970Z,31.4
2019-04-20T07:45:01.233Z,29.5
2019-04-20T07:49:01.399Z,36
2019-04-20T07:50:50.491Z,31
2019-04-20T07:52:48.588Z,28.6
2019-04-20T07:55:22.193Z,28.4
2019-04-20T07:56:53.740Z,24.9
2019-04-20T07:58:46.050Z,33.8
2019-04-20T08:01:05.856Z,24.7
2019-04-20T08:03:03.072Z,28.2
2019-04-20T08:04:55.064Z,21.1
2019-04-20T08:06:43.336Z,31.2
2019-04-20T08:08:56.095Z,24.3
2019-04-20T08:10:53.813Z,29.7
2019-04-20T08:13:07.982Z,22.3
2019-04-20T08:15:05.131Z,30.8
2019-04-20T08:17:14.074Z,25.5
2019-04-20T08:18:55.465Z,27.6
2019-04-20T08:20:58.495Z,28.5
2019-04-20T08:22:58.667Z,28.3
2019-04-20T08:24:52.370Z,22
2019-04-20T08:26:45.378Z,28.2
2019-04-20T08:28:46.521Z,18.3
2019-04-20T08:30:55.749Z,25
2019-04-20T08:32:51.874Z,20.7
2019-04-20T08:35:00.730Z,21.6
2019-04-20T08:36:58.474Z,21.5
2019-04-20T08:39:30.785Z,16.7
2019-04-20T08:43:02.444Z,22.4
2019-04-20T08:47:05.139Z,10.8
2019-04-20T08:48:58.132Z,9.9
2019-04-20T08:53:09.987Z,10.5
2019-04-20T08:54:57.792Z,13.7
2019-04-20T08:56:43.464Z,13.8
2019-04-20T08:58:36.215Z,14.7
2019-04-20T09:00:45.701Z,14.3
2019-04-20T09:02:41.332Z,13.3
2019-04-20T09:04:45.001Z,11
2019-04-20T09:08:46.668Z,12
2019-04-20T09:10:53.968Z,9.8
2019-04-20T09:12:50.661Z,9.2
2019-04-20T09:14:37.897Z,12.8
2019-04-20T09:18:44.338Z,11.7
2019-04-20T09:20:43.513Z,10.4
2019-04-20T09:25:01.739Z,11.2
2019-04-20T09:28:39.605Z,13.9
2019-04-20T09:30:42.837Z,14.6
2019-04-20T09:32:49.434Z,11.2
2019-04-20T09:34:55.798Z,17.9
2019-04-20T09:36:46.791Z,14.2
2019-04-20T09:38:47.812Z,14.8
2019-04-20T09:40:50.323Z,12.9
2019-04-20T09:42:33.489Z,11.3
2019-04-20T09:44:37.503Z,17.5
2019-04-20T09:46:40.356Z,12
2019-04-20T09:48:41.998Z,11.7
2019-04-20T09:50:55.536Z,11.8
2019-04-20T09:52:53.464Z,13.7
2019-04-20T09:54:53.035Z,14.8
2019-04-20T09:56:54.910Z,9
2019-04-20T09:58:59.369Z,15.8
2019-04-20T10:01:00.786Z,10.6
2019-04-20T10:02:37.779Z,13
2019-04-20T10:04:33.446Z,9.6
2019-04-20T10:06:35.888Z,9.1
2019-04-20T10:08:33.990Z,12
2019-04-20T10:10:38.897Z,8.7
2019-04-20T10:12:33.539Z,12.8
2019-04-20T10:14:33.117Z,12.2
2019-04-20T10:16:33.351Z,10.3
2019-04-20T10:18:34.265Z,11.7
2019-04-20T10:20:35.292Z,10.3
2019-04-20T10:24:32.767Z,10.5
2019-04-20T10:26:32.387Z,9.2
2019-04-20T10:28:31.886Z,18.1
2019-04-20T10:30:34.621Z,6
2019-04-20T10:32:37.735Z,8.4
2019-04-20T10:36:31.380Z,8.3
2019-04-20T10:38:34.191Z,8.4
2019-04-20T10:40:44.955Z,7.8
2019-04-20T10:42:32.201Z,7.9
2019-04-20T10:44:32.529Z,12.2
2019-04-20T10:46:31.192Z,10.8
2019-04-20T10:48:37.507Z,8.1
2019-04-20T10:50:31.237Z,10.3
2019-04-20T10:54:32.246Z,9.5
2019-04-20T10:56:31.727Z,10.7
2019-04-20T10:58:33.654Z,12.6
2019-04-20T11:00:43.816Z,12.9
2019-04-20T11:02:31.886Z,9.2
2019-04-20T11:04:30.688Z,9.8
2019-04-20T11:06:32.283Z,11.4
2019-04-20T11:08:32.888Z,17.2
2019-04-20T11:10:46.786Z,11.7
2019-04-20T11:12:30.719Z,12.5
2019-04-20T11:14:34.563Z,12.6
2019-04-20T11:18:31.405Z,12
2019-04-20T11:20:31.611Z,14.4
2019-04-20T11:22:30.613Z,12
2019-04-20T11:24:30.349Z,6.9
2019-04-20T11:26:32.171Z,10.3
2019-04-20T11:28:30.339Z,11.6
2019-04-20T11:30:30.418Z,18.1
2019-04-20T11:32:30.388Z,13.8
2019-04-20T11:34:34.040Z,9.3
2019-04-20T11:36:30.986Z,8.8
2019-04-20T11:38:30.230Z,8.5
2019-04-20T11:40:30.845Z,8
2019-04-20T11:42:29.956Z,12.4
2019-04-20T11:44:31.604Z,10.9
2019-04-20T11:46:30.441Z,9.6
2019-04-20T11:48:29.704Z,12.1
2019-04-20T11:50:29.730Z,13
2019-04-20T11:54:30.446Z,12.3
2019-04-20T11:56:34.841Z,11
2019-04-20T11:58:30.357Z,10
2019-04-20T12:00:46.978Z,13.7
2019-04-20T12:02:34.864Z,8.6
2019-04-20T12:04:40.432Z,13.9
2019-04-20T12:06:30.820Z,12.8
2019-04-20T12:08:32.172Z,11
2019-04-20T12:10:30.084Z,9.9
2019-04-20T12:12:38.022Z,9.2
2019-04-20T12:14:30.478Z,8.8
2019-04-20T12:16:29.724Z,7.8
2019-04-20T12:18:29.516Z,11
2019-04-20T12:20:29.063Z,12.5
2019-04-20T12:22:28.474Z,10.3
2019-04-20T12:24:29.132Z,9.4
2019-04-20T12:26:29.046Z,10.8
2019-04-20T12:28:29.487Z,15.6
2019-04-20T12:32:35.219Z,9.9
2019-04-20T12:34:28.698Z,14.6
2019-04-20T12:36:28.130Z,9.6
2019-04-20T12:38:28.499Z,12.1
2019-04-20T12:40:28.103Z,15.8
2019-04-20T12:42:30.947Z,11.7
2019-04-20T12:44:28.026Z,15.4
2019-04-20T12:46:28.093Z,13.3
2019-04-20T12:48:29.295Z,11.8
2019-04-20T12:50:28.076Z,15.6
2019-04-20T12:52:28.267Z,10.4
2019-04-20T12:54:27.058Z,10.7
2019-04-20T12:56:26.960Z,9.9
2019-04-20T12:58:26.794Z,11.5
2019-04-20T13:00:43.602Z,14.4
2019-04-20T13:02:27.291Z,14.8
2019-04-20T13:04:26.890Z,10.7
2019-04-20T13:06:27.986Z,11.4
2019-04-20T13:08:33.964Z,10.7
2019-04-20T13:10:27.474Z,10.9
2019-04-20T13:12:29.121Z,12.1
2019-04-20T13:16:26.342Z,10.9
2019-04-20T13:18:27.399Z,13.6
2019-04-20T13:20:25.879Z,13.9
2019-04-20T13:22:25.651Z,11.7
2019-04-20T13:24:25.566Z,9.5
2019-04-20T13:26:26.893Z,12.1
2019-04-20T13:28:26.243Z,11.2
2019-04-20T13:30:27.984Z,14.6
2019-04-20T13:32:25.701Z,17.4
2019-04-20T13:34:24.885Z,12.9
2019-04-20T13:36:26.168Z,11
2019-04-20T13:38:25.809Z,14
2019-04-20T13:40:25.982Z,16.9
2019-04-20T13:42:28.536Z,10.6
2019-04-20T13:44:24.403Z,9.3
2019-04-20T13:46:24.947Z,11.8
2019-04-20T13:48:24.918Z,9.7
2019-04-20T13:50:24.185Z,12.4
2019-04-20T13:54:26.638Z,13
2019-04-20T13:58:23.712Z,11.2
2019-04-20T14:00:32.648Z,12.9
2019-04-20T14:02:26.718Z,11.3
2019-04-20T14:04:26.578Z,11.7
2019-04-20T14:10:23.728Z,8.7
2019-04-20T14:12:29.964Z,11.9
2019-04-20T14:14:23.481Z,13.8
2019-04-20T14:16:23.257Z,12.1
2019-04-20T14:18:22.894Z,14.6
2019-04-20T14:20:24.305Z,16
2019-04-20T14:22:22.961Z,13.6
2019-04-20T14:24:22.353Z,10.7
2019-04-20T14:26:22.996Z,13.1
2019-04-20T14:28:23.082Z,11.8
2019-04-20T14:30:22.362Z,13.3
2019-04-20T14:32:22.875Z,15.3
2019-04-20T14:34:22.715Z,17.3
2019-04-20T14:36:24.133Z,14.3
2019-04-20T14:38:22.256Z,18
2019-04-20T14:40:22.118Z,15
2019-04-20T14:42:30.654Z,12.7
2019-04-20T14:44:22.075Z,16.6
2019-04-20T14:46:21.175Z,14.6
2019-04-20T14:48:21.015Z,19.4
2019-04-20T14:50:23.458Z,14.4
2019-04-20T14:52:21.775Z,14.8
2019-04-20T14:54:21.365Z,18.3
2019-04-20T14:56:20.785Z,17.5
2019-04-20T14:58:21.685Z,16.1
2019-04-20T15:00:37.504Z,18.7
2019-04-20T15:02:21.703Z,18
2019-04-20T15:04:23.314Z,13.6
2019-04-20T15:06:21.277Z,17.1
2019-04-20T15:08:20.629Z,16
2019-04-20T15:10:20.611Z,12.7
2019-04-20T15:12:21.244Z,14.2
2019-04-20T15:14:20.752Z,12.7
2019-04-20T15:16:20.333Z,12.6
2019-04-20T15:18:19.799Z,15.9
2019-04-20T15:22:19.513Z,15.1
2019-04-20T15:24:19.720Z,11.8
2019-04-20T15:26:20.429Z,14.4
2019-04-20T15:30:20.573Z,16.3
2019-04-20T15:32:19.156Z,19.4
2019-04-20T15:34:19.277Z,11.7
2019-04-20T15:36:20.137Z,12.2
2019-04-20T15:38:18.781Z,12.7
2019-04-20T15:40:19.351Z,13.1
2019-04-20T15:42:19.674Z,20.5
2019-04-20T15:44:19.470Z,13.4
2019-04-20T15:46:19.395Z,12.3
2019-04-20T15:48:19.905Z,13.5
2019-04-20T15:50:18.268Z,13.9
2019-04-20T15:54:19.654Z,15.3
2019-04-20T15:56:18.637Z,14.3
2019-04-20T15:58:18.492Z,10.9
2019-04-20T16:00:18.455Z,15.9
2019-04-20T16:02:17.741Z,13.6
2019-04-20T16:04:24.966Z,17.4
2019-04-20T16:06:17.156Z,12.1
2019-04-20T16:08:16.719Z,14.8
2019-04-20T16:10:17.274Z,14.9
2019-04-20T16:12:17.259Z,19.1
2019-04-20T16:14:17.483Z,16
2019-04-20T16:16:16.394Z,18.4
2019-04-20T16:18:16.736Z,15.4
2019-04-20T16:20:20.071Z,17.9
2019-04-20T16:22:15.775Z,17.1
2019-04-20T16:24:16.895Z,19.3
2019-04-20T16:26:15.581Z,14.1
2019-04-20T16:28:15.505Z,16.1
2019-04-20T16:30:15.827Z,17.7
2019-04-20T16:32:16.507Z,16.3
2019-04-20T16:34:15.979Z,17.8
2019-04-20T16:36:14.845Z,19.5
2019-04-20T16:38:16.119Z,17.8
2019-04-20T16:40:15.615Z,15.8
2019-04-20T16:42:14.343Z,15.9
2019-04-20T16:44:15.650Z,19.1
2019-04-20T16:46:18.135Z,31.8
2019-04-20T16:48:13.977Z,16.5
2019-04-20T16:50:15.004Z,21.2
2019-04-20T16:52:14.828Z,18.2
2019-04-20T16:54:13.953Z,23.2
2019-04-20T16:56:16.116Z,15.5
2019-04-20T16:58:13.430Z,19.4
2019-04-20T17:00:13.707Z,22.9
2019-04-20T17:02:15.940Z,35.5
2019-04-20T17:06:13.792Z,18.4
2019-04-20T17:08:13.243Z,15.9
2019-04-20T17:10:13.769Z,17.1
2019-04-20T17:12:12.151Z,17.9
2019-04-20T17:14:13.172Z,24.2
2019-04-20T17:16:11.768Z,24.1
2019-04-20T17:18:11.853Z,29.2
2019-04-20T17:22:11.722Z,18.8
2019-04-20T17:24:11.274Z,16.2
2019-04-20T17:26:11.900Z,14.3
2019-04-20T17:28:11.401Z,20.4
2019-04-20T17:30:10.797Z,22
2019-04-20T17:32:11.740Z,17.6
2019-04-20T17:34:28.360Z,23.1
2019-04-20T17:36:18.572Z,19.1
2019-04-20T17:38:10.849Z,26.6
2019-04-20T17:40:31.145Z,18.2
2019-04-20T17:42:25.164Z,25.5
2019-04-20T17:46:23.736Z,22.4
2019-04-20T17:50:24.045Z,24.3
2019-04-20T17:52:28.072Z,27.7
2019-04-20T17:54:10.423Z,25.1
2019-04-20T17:56:10.106Z,22.3
2019-04-20T17:58:13.761Z,25
2019-04-20T18:00:15.173Z,21.5
2019-04-20T18:02:20.447Z,21
2019-04-20T18:04:41.805Z,26.4
2019-04-20T18:06:30.381Z,24.9
2019-04-20T18:08:28.461Z,27.2
2019-04-20T18:10:26.415Z,28.2
2019-04-20T18:12:14.169Z,23
2019-04-20T18:14:28.520Z,22.7
2019-04-20T18:16:30.192Z,21.3
2019-04-20T18:20:07.204Z,25.7
2019-04-20T18:22:07.697Z,25.9
2019-04-20T18:24:14.163Z,27.7
2019-04-20T18:26:30.095Z,27.5
2019-04-20T18:28:18.532Z,26.4
2019-04-20T18:30:24.125Z,26.2
2019-04-20T18:32:05.586Z,20.6
2019-04-20T18:34:09.181Z,25.4
2019-04-20T18:36:05.836Z,26.2
2019-04-20T18:38:09.731Z,23.2
2019-04-20T18:40:11.098Z,26.3
2019-04-20T18:42:14.301Z,46.6
2019-04-20T18:44:04.572Z,29.6
2019-04-20T18:46:21.728Z,30.1
2019-04-20T18:48:24.478Z,33.4
2019-04-20T18:50:15.024Z,30.9
2019-04-20T18:52:04.208Z,26
2019-04-20T18:54:11.466Z,25.6
2019-04-20T18:56:05.797Z,30.3
2019-04-20T18:58:03.030Z,32.8
2019-04-20T19:00:07.892Z,29.3
2019-04-20T19:02:06.713Z,29.6
2019-04-20T19:04:03.769Z,30.4
2019-04-20T19:06:02.308Z,33.9
2019-04-20T19:08:06.784Z,36.5
2019-04-20T19:10:13.866Z,38.6
2019-04-20T19:12:04.640Z,76.9
2019-04-20T19:14:10.276Z,40.6
2019-04-20T19:16:15.458Z,48.9
2019-04-20T19:18:11.519Z,33.2
2019-04-20T19:20:03.563Z,34.4
2019-04-20T19:22:01.787Z,29.1
2019-04-20T19:24:07.616Z,28
2019-04-20T19:26:05.485Z,29.8
2019-04-20T19:28:01.494Z,32
2019-04-20T19:30:16.884Z,32.4
2019-04-20T19:32:17.926Z,28.8
2019-04-20T19:34:22.746Z,39.3
2019-04-20T19:36:15.081Z,35.5
2019-04-20T19:38:09.343Z,29.7
2019-04-20T19:40:12.655Z,30.3
2019-04-20T19:42:12.210Z,34.9
2019-04-20T19:44:09.963Z,27.2
2019-04-20T19:46:37.900Z,28.9
2019-04-20T19:48:12.247Z,28
2019-04-20T19:50:26.792Z,30.4
2019-04-20T19:52:27.198Z,31.4
2019-04-20T19:54:17.941Z,29.4
2019-04-20T19:56:09.942Z,31.5
2019-04-20T19:58:13.382Z,30.1
2019-04-20T19:59:58.667Z,38.3
2019-04-20T20:01:57.897Z,36
2019-04-20T20:04:00.256Z,32.7
2019-04-20T20:05:57.799Z,86.9
2019-04-20T20:08:03.757Z,28.5
2019-04-20T20:10:00.574Z,36.9
2019-04-20T20:12:02.916Z,33.6
2019-04-20T20:13:57.096Z,28.1
2019-04-20T20:16:02.438Z,27.5
2019-04-20T20:18:15.766Z,27.6
2019-04-20T20:20:23.003Z,39.8
2019-04-20T20:22:05.618Z,35.6
2019-04-20T20:23:54.236Z,26.2
2019-04-20T20:25:54.854Z,24
2019-04-20T20:27:59.478Z,26.7
2019-04-20T20:30:04.708Z,28.3
2019-04-20T20:32:05.086Z,25.7
2019-04-20T20:34:02.958Z,26.2
2019-04-20T20:36:02.225Z,27
2019-04-20T20:40:03.907Z,26.4
2019-04-20T20:42:01.539Z,26.6
2019-04-20T20:44:02.636Z,30.3
2019-04-20T20:46:09.115Z,26
2019-04-20T20:48:09.189Z,27.6
2019-04-20T20:50:13.025Z,27
2019-04-20T20:52:12.329Z,28.5
2019-04-20T20:54:03.473Z,26.7
2019-04-20T20:56:04.421Z,25.2
2019-04-20T20:57:59.227Z,24.2
2019-04-20T20:59:57.401Z,28.1
2019-04-20T21:02:00.946Z,23.6
2019-04-20T21:03:53.006Z,25.8
2019-04-20T21:05:49.741Z,21.3
2019-04-20T21:07:51.319Z,25.7
2019-04-20T21:09:50.454Z,29.7
2019-04-20T21:11:52.060Z,25.4
2019-04-20T21:13:50.983Z,27.4
2019-04-20T21:15:57.601Z,24.2
2019-04-20T21:20:07.365Z,28.4
2019-04-20T21:21:57.100Z,30.9
2019-04-20T21:23:56.012Z,27.2
2019-04-20T21:25:50.452Z,28.9
2019-04-20T21:27:48.675Z,26.4
2019-04-20T21:29:51.426Z,25.9
2019-04-20T21:31:55.539Z,27
2019-04-20T21:33:47.108Z,27.6
2019-04-20T21:35:50.169Z,29.3
2019-04-20T21:37:51.230Z,26.7
2019-04-20T21:39:54.182Z,25.1
2019-04-20T21:41:51.274Z,34.9
2019-04-20T21:43:46.457Z,30.4
2019-04-20T21:45:54.871Z,25.7
2019-04-20T21:47:47.027Z,24.2
2019-04-20T21:49:55.393Z,21.9
2019-04-20T21:51:52.005Z,27.8
2019-04-20T21:53:44.542Z,23.2
2019-04-20T21:55:46.008Z,28
2019-04-20T21:57:50.152Z,26.9
2019-04-20T21:59:48.792Z,22.6
2019-04-20T22:01:56.413Z,25.7
2019-04-20T22:03:44.760Z,25.9
2019-04-20T22:05:44.272Z,25.1
2019-04-20T22:07:44.285Z,25.4
2019-04-20T22:09:46.763Z,22.9
2019-04-20T22:11:44.189Z,28.7
2019-04-20T22:13:44.569Z,27.7
2019-04-20T22:15:51.924Z,25
2019-04-20T22:17:42.746Z,31.6
2019-04-20T22:19:52.701Z,27
2019-04-20T22:21:53.381Z,26.5
2019-04-20T22:24:01.868Z,30.5
2019-04-20T22:25:55.239Z,24.8
2019-04-20T22:31:46.126Z,28.4
2019-04-20T22:33:42.773Z,26.4
2019-04-20T22:35:44.271Z,22.7
2019-04-20T22:39:46.664Z,27.2
2019-04-20T22:41:40.686Z,28.7
2019-04-20T22:43:40.336Z,30
2019-04-20T22:45:45.692Z,29.1
2019-04-20T22:47:40.700Z,28.5
2019-04-20T22:49:51.494Z,29.5
2019-04-20T22:51:49.568Z,25.9
2019-04-20T22:53:49.825Z,30.5
2019-04-20T22:56:01.482Z,28.2
2019-04-20T22:57:56.593Z,26.9
2019-04-20T22:59:49.415Z,29.3
2019-04-20T23:01:45.784Z,33
2019-04-20T23:03:38.798Z,41.7
2019-04-20T23:05:38.503Z,26.1
2019-04-20T23:07:37.329Z,29.5
2019-04-20T23:11:37.607Z,26.9
2019-04-20T23:13:41.260Z,27.4
2019-04-20T23:15:36.312Z,29.4
2019-04-20T23:17:39.938Z,27.7
2019-04-20T23:19:43.825Z,26.8
2019-04-20T23:21:40.128Z,28.4
2019-04-20T23:25:36.528Z,29.3
2019-04-20T23:27:37.320Z,27.2
2019-04-20T23:29:38.349Z,26.1
2019-04-20T23:31:34.685Z,33.3
2019-04-20T23:33:34.337Z,31.5
2019-04-20T23:35:37.634Z,31.2
2019-04-20T23:37:37.007Z,30.3
2019-04-20T23:39:37.350Z,22.3
2019-04-20T23:41:33.521Z,31.5
2019-04-20T23:43:35.942Z,29.9
2019-04-20T23:45:38.741Z,30.7
2019-04-20T23:47:34.064Z,24
2019-04-20T23:49:53.595Z,23.6
2019-04-20T23:51:52.610Z,26.7
2019-04-20T23:53:45.505Z,30.8
2019-04-20T23:57:33.596Z,22.7
